sensor_id;sensor_type;location;lat;lon;timestamp;pressure;altitude;pressure_sealevel;temperature;humidity
32759;BME280;19125;52.360;9.974;2023-03-18T00:01:23;86651.63;;;-145.17;43.02
32759;BME280;19125;52.360;9.974;2023-03-18T00:03:48;86641.72;;;-145.17;43.13
32759;BME280;19125;52.360;9.974;2023-03-18T00:06:17;86643.69;;;-145.17;43.01
32759;BME280;19125;52.360;9.974;2023-03-18T00:08:44;86643.69;;;-145.17;42.99
32759;BME280;19125;52.360;9.974;2023-03-18T00:11:11;86681.41;;;-145.17;43.32
32759;BME280;19125;52.360;9.974;2023-03-18T00:13:37;86649.66;;;-145.17;43.28
32759;BME280;19125;52.360;9.974;2023-03-18T00:16:04;86657.59;;;-145.17;43.10
32759;BME280;19125;52.360;9.974;2023-03-18T00:18:31;86665.53;;;-145.17;43.15
32759;BME280;19125;52.360;9.974;2023-03-18T00:20:57;86663.53;;;-145.17;43.69
32759;BME280;19125;52.360;9.974;2023-03-18T00:23:25;86738.94;;;-145.17;43.99
32759;BME280;19125;52.360;9.974;2023-03-18T00:25:52;86703.22;;;-145.17;44.41
32759;BME280;19125;52.360;9.974;2023-03-18T00:28:18;86711.16;;;-145.17;44.31
32759;BME280;19125;52.360;9.974;2023-03-18T00:30:43;86707.19;;;-145.17;44.53
32759;BME280;19125;52.360;9.974;2023-03-18T00:33:09;86703.22;;;-145.17;44.62
32759;BME280;19125;52.360;9.974;2023-03-18T00:35:35;86746.91;;;-145.17;44.81
32759;BME280;19125;52.360;9.974;2023-03-18T00:38:03;86734.97;;;-145.17;45.13
32759;BME280;19125;52.360;9.974;2023-03-18T00:40:31;86744.91;;;-145.17;45.07
32759;BME280;19125;52.360;9.974;2023-03-18T00:43:11;86742.91;;;-145.17;45.14
32759;BME280;19125;52.360;9.974;2023-03-18T00:45:38;86750.88;;;-145.17;45.15
32759;BME280;19125;52.360;9.974;2023-03-18T00:48:04;86746.91;;;-145.17;45.23
32759;BME280;19125;52.360;9.974;2023-03-18T00:50:29;86760.78;;;-145.17;45.29
32759;BME280;19125;52.360;9.974;2023-03-18T00:52:54;86719.09;;;-145.17;45.07
32759;BME280;19125;52.360;9.974;2023-03-18T00:55:21;86762.78;;;-145.17;45.25
32759;BME280;19125;52.360;9.974;2023-03-18T00:57:46;86725.06;;;-145.17;45.19
32759;BME280;19125;52.360;9.974;2023-03-18T01:00:12;86750.88;;;-145.17;44.77
32759;BME280;19125;52.360;9.974;2023-03-18T01:02:41;86707.19;;;-145.17;44.57
32759;BME280;19125;52.360;9.974;2023-03-18T01:05:07;86715.13;;;-145.17;44.99
32759;BME280;19125;52.360;9.974;2023-03-18T01:07:33;86715.13;;;-145.17;45.13
32759;BME280;19125;52.360;9.974;2023-03-18T01:09:58;86744.91;;;-145.17;45.49
32759;BME280;19125;52.360;9.974;2023-03-18T01:12:24;86782.63;;;-145.17;45.79
32759;BME280;19125;52.360;9.974;2023-03-18T01:14:49;86774.69;;;-145.17;46.00
32759;BME280;19125;52.360;9.974;2023-03-18T01:17:15;86816.34;;;-145.17;46.39
32759;BME280;19125;52.360;9.974;2023-03-18T01:19:40;86852.09;;;-145.17;46.97
32759;BME280;19125;52.360;9.974;2023-03-18T01:22:06;86858.03;;;-145.17;47.33
32759;BME280;19125;52.360;9.974;2023-03-18T01:24:32;86828.25;;;-145.17;47.33
32759;BME280;19125;52.360;9.974;2023-03-18T01:26:58;86850.09;;;-145.17;47.52
32759;BME280;19125;52.360;9.974;2023-03-18T01:29:24;86881.84;;;-145.17;47.28
32759;BME280;19125;52.360;9.974;2023-03-18T01:31:50;86862.00;;;-145.17;47.24
32759;BME280;19125;52.360;9.974;2023-03-18T01:34:15;86838.19;;;-145.17;46.70
32759;BME280;19125;52.360;9.974;2023-03-18T01:36:41;86816.34;;;-145.17;46.81
32759;BME280;19125;52.360;9.974;2023-03-18T01:39:07;86852.09;;;-145.17;46.97
32759;BME280;19125;52.360;9.974;2023-03-18T01:41:32;86889.78;;;-145.17;47.11
32759;BME280;19125;52.360;9.974;2023-03-18T01:43:57;86899.72;;;-145.17;47.12
32759;BME280;19125;52.360;9.974;2023-03-18T01:46:41;86893.75;;;-145.17;47.51
32759;BME280;19125;52.360;9.974;2023-03-18T01:49:22;86911.63;;;-145.17;47.67
32759;BME280;19125;52.360;9.974;2023-03-18T01:51:57;86889.78;;;-145.17;47.87
32759;BME280;19125;52.360;9.974;2023-03-18T01:54:24;86921.53;;;-145.17;47.93
32759;BME280;19125;52.360;9.974;2023-03-18T01:56:51;86937.44;;;-145.17;47.93
32759;BME280;19125;52.360;9.974;2023-03-18T01:59:20;86923.53;;;-145.17;48.02
32759;BME280;19125;52.360;9.974;2023-03-18T02:01:52;86961.25;;;-145.17;48.22
32759;BME280;19125;52.360;9.974;2023-03-18T02:04:18;86985.06;;;-145.17;48.28
32759;BME280;19125;52.360;9.974;2023-03-18T02:06:45;86933.44;;;-145.17;48.47
32759;BME280;19125;52.360;9.974;2023-03-18T02:09:11;86983.06;;;-145.17;48.51
32759;BME280;19125;52.360;9.974;2023-03-18T02:11:40;87004.91;;;-145.17;48.83
32759;BME280;19125;52.360;9.974;2023-03-18T02:14:09;86994.97;;;-145.17;48.77
32759;BME280;19125;52.360;9.974;2023-03-18T02:16:59;87008.88;;;-145.17;48.93
32759;BME280;19125;52.360;9.974;2023-03-18T02:19:56;87000.94;;;-145.17;49.44
32759;BME280;19125;52.360;9.974;2023-03-18T02:22:33;87050.56;;;-145.17;49.52
32759;BME280;19125;52.360;9.974;2023-03-18T02:27:49;87048.56;;;-145.17;49.58
32759;BME280;19125;52.360;9.974;2023-03-18T02:30:18;87080.31;;;-145.17;49.72
32759;BME280;19125;52.360;9.974;2023-03-18T02:32:46;87080.31;;;-145.17;49.46
32759;BME280;19125;52.360;9.974;2023-03-18T02:35:12;87080.31;;;-145.17;49.73
32759;BME280;19125;52.360;9.974;2023-03-18T02:37:38;87108.13;;;-145.17;50.18
32759;BME280;19125;52.360;9.974;2023-03-18T02:42:39;87155.75;;;-145.17;50.81
32759;BME280;19125;52.360;9.974;2023-03-18T02:45:09;87203.38;;;-145.17;50.74
32759;BME280;19125;52.360;9.974;2023-03-18T02:47:39;87181.56;;;-145.17;50.96
32759;BME280;19125;52.360;9.974;2023-03-18T02:50:07;87231.19;;;-145.17;51.15
32759;BME280;19125;52.360;9.974;2023-03-18T02:52:33;87247.06;;;-145.17;51.33
32759;BME280;19125;52.360;9.974;2023-03-18T02:54:58;87268.88;;;-145.17;51.26
32759;BME280;19125;52.360;9.974;2023-03-18T02:57:26;87266.91;;;-145.17;51.72
32759;BME280;19125;52.360;9.974;2023-03-18T02:59:51;87262.94;;;-145.17;51.70
32759;BME280;19125;52.360;9.974;2023-03-18T03:02:16;87266.91;;;-145.17;51.54
32759;BME280;19125;52.360;9.974;2023-03-18T03:04:42;87314.53;;;-145.17;52.18
32759;BME280;19125;52.360;9.974;2023-03-18T03:07:07;87310.56;;;-145.17;52.14
32759;BME280;19125;52.360;9.974;2023-03-18T03:09:33;87346.31;;;-145.17;52.61
32759;BME280;19125;52.360;9.974;2023-03-18T03:11:58;87374.09;;;-145.17;52.75
32759;BME280;19125;52.360;9.974;2023-03-18T03:14:24;87413.78;;;-145.17;53.49
32759;BME280;19125;52.360;9.974;2023-03-18T03:16:49;87429.66;;;-145.17;53.74
32759;BME280;19125;52.360;9.974;2023-03-18T03:19:14;87570.59;;;-145.17;54.78
32759;BME280;19125;52.360;9.974;2023-03-18T03:21:40;87576.56;;;-145.17;55.62
32759;BME280;19125;52.360;9.974;2023-03-18T03:24:06;87576.56;;;-145.17;56.19
32759;BME280;19125;52.360;9.974;2023-03-18T03:26:32;87667.88;;;-145.17;56.87
32759;BME280;19125;52.360;9.974;2023-03-18T03:28:58;87586.50;;;-145.17;57.66
32759;BME280;19125;52.360;9.974;2023-03-18T03:31:24;87429.66;;;-145.17;58.61
32759;BME280;19125;52.360;9.974;2023-03-18T03:33:51;87165.69;;;-145.17;59.15
32759;BME280;19125;52.360;9.974;2023-03-18T03:36:17;86687.34;;;-145.17;59.88
32759;BME280;19125;52.360;9.974;2023-03-18T03:38:42;85492.78;;;-145.17;60.64
32759;BME280;19125;52.360;9.974;2023-03-18T03:41:10;83275.25;;;-145.17;60.89
32759;BME280;19125;52.360;9.974;2023-03-18T03:43:39;80559.53;;;-145.17;61.69
32759;BME280;19125;52.360;9.974;2023-03-18T03:46:05;77160.53;;;-145.17;61.79
32759;BME280;19125;52.360;9.974;2023-03-18T03:48:31;73145.28;;;-145.17;62.52
32759;BME280;19125;52.360;9.974;2023-03-18T03:50:57;68806.03;;;-145.17;62.47
32759;BME280;19125;52.360;9.974;2023-03-18T03:53:23;64516.94;;;-145.17;62.90
32759;BME280;19125;52.360;9.974;2023-03-18T03:55:49;60729.28;;;-145.17;63.31
32759;BME280;19125;52.360;9.974;2023-03-18T03:58:14;57701.75;;;-145.17;63.56
32759;BME280;19125;52.360;9.974;2023-03-18T04:00:40;54676.56;;;-145.17;63.71
32759;BME280;19125;52.360;9.974;2023-03-18T04:03:05;52157.31;;;-145.17;63.80
32759;BME280;19125;52.360;9.974;2023-03-18T04:05:30;50143.06;;;-145.17;63.92
32759;BME280;19125;52.360;9.974;2023-03-18T04:07:56;47878.28;;;-145.17;64.21
32759;BME280;19125;52.360;9.974;2023-03-18T04:10:24;45614.78;;;-145.17;64.22
32759;BME280;19125;52.360;9.974;2023-03-18T04:12:50;43101.28;;;-145.17;64.27
32759;BME280;19125;52.360;9.974;2023-03-18T04:15:18;40840.53;;;-145.17;64.97
32759;BME280;19125;52.360;9.974;2023-03-18T04:17:44;38079.16;;;-145.17;65.17
32759;BME280;19125;52.360;9.974;2023-03-18T04:20:11;36072.09;;;-145.17;65.26
32759;BME280;19125;52.360;9.974;2023-03-18T04:22:38;34316.75;;;-145.17;65.42
32759;BME280;19125;52.360;9.974;2023-03-18T04:25:04;32562.19;;;-145.17;65.63
32759;BME280;19125;52.360;9.974;2023-03-18T04:27:29;31559.94;;;-145.17;65.71
32759;BME280;19125;52.360;9.974;2023-03-18T04:29:54;30557.94;;;-145.17;66.11
32759;BME280;19125;52.360;9.974;2023-03-18T04:32:20;29556.22;;;-145.17;66.18
32759;BME280;19125;52.360;9.974;2023-03-18T04:34:46;28805.09;;;-145.17;65.79
32759;BME280;19125;52.360;9.974;2023-03-18T04:37:11;27803.78;;;-145.17;65.95
32759;BME280;19125;52.360;9.974;2023-03-18T04:39:39;26552.53;;;-145.17;66.11
32759;BME280;19125;52.360;9.974;2023-03-18T04:42:05;25802.00;;;-145.17;66.05
32759;BME280;19125;52.360;9.974;2023-03-18T04:44:31;25301.69;;;-145.17;65.98
32759;BME280;19125;52.360;9.974;2023-03-18T04:46:56;24301.31;;;-145.17;66.12
32759;BME280;19125;52.360;9.974;2023-03-18T04:49:22;24051.25;;;-145.17;66.52
32759;BME280;19125;52.360;9.974;2023-03-18T04:51:48;23301.19;;;-145.17;66.13
32759;BME280;19125;52.360;9.974;2023-03-18T04:54:14;22551.25;;;-145.17;66.54
32759;BME280;19125;52.360;9.974;2023-03-18T04:56:39;22301.28;;;-145.17;66.11
32759;BME280;19125;52.360;9.974;2023-03-18T04:59:05;22551.25;;;-145.17;66.15
32759;BME280;19125;52.360;9.974;2023-03-18T05:01:31;22801.19;;;-145.17;66.56
32759;BME280;19125;52.360;9.974;2023-03-18T05:03:57;23051.19;;;-145.17;66.27
32759;BME280;19125;52.360;9.974;2023-03-18T05:06:25;23051.19;;;-145.17;66.41
32759;BME280;19125;52.360;9.974;2023-03-18T05:08:52;23051.19;;;-145.17;66.41
32759;BME280;19125;52.360;9.974;2023-03-18T05:11:18;23301.19;;;-145.17;66.06
32759;BME280;19125;52.360;9.974;2023-03-18T05:13:44;22801.19;;;-145.17;66.15
32759;BME280;19125;52.360;9.974;2023-03-18T05:16:10;22801.19;;;-145.17;66.03
32759;BME280;19125;52.360;9.974;2023-03-18T05:18:36;22801.19;;;-145.17;66.29
32759;BME280;19125;52.360;9.974;2023-03-18T05:21:02;23051.19;;;-145.17;66.35
32759;BME280;19125;52.360;9.974;2023-03-18T05:23:29;23301.19;;;-145.17;66.15
32759;BME280;19125;52.360;9.974;2023-03-18T05:25:54;23551.19;;;-145.17;66.05
32759;BME280;19125;52.360;9.974;2023-03-18T05:28:20;23051.19;;;-145.17;66.23
32759;BME280;19125;52.360;9.974;2023-03-18T05:30:46;22801.19;;;-145.17;66.48
32759;BME280;19125;52.360;9.974;2023-03-18T05:33:12;22801.19;;;-145.17;66.11
32759;BME280;19125;52.360;9.974;2023-03-18T05:35:38;22801.19;;;-145.17;66.27
32759;BME280;19125;52.360;9.974;2023-03-18T05:38:04;22301.28;;;-145.17;66.63
32759;BME280;19125;52.360;9.974;2023-03-18T05:40:31;21801.44;;;-145.17;66.54
32759;BME280;19125;52.360;9.974;2023-03-18T05:42:56;21301.69;;;-145.17;66.80
32759;BME280;19125;52.360;9.974;2023-03-18T05:45:23;20302.31;;;-145.17;67.05
32759;BME280;19125;52.360;9.974;2023-03-18T05:47:48;18803.75;;;-145.17;66.85
32759;BME280;19125;52.360;9.974;2023-03-18T05:50:29;17805.03;;;-145.17;66.89
32759;BME280;19125;52.360;9.974;2023-03-18T05:52:54;16057.88;;;-145.17;67.25
32759;BME280;19125;52.360;9.974;2023-03-18T05:55:20;15059.84;;;-145.17;67.23
32759;BME280;19125;52.360;9.974;2023-03-18T05:57:46;14810.38;;;-145.17;67.33
32759;BME280;19125;52.360;9.974;2023-03-18T06:00:13;14560.94;;;-145.17;67.19
32759;BME280;19125;52.360;9.974;2023-03-18T06:02:39;14311.50;;;-145.17;67.42
32759;BME280;19125;52.360;9.974;2023-03-18T06:05:05;14311.50;;;-145.17;67.37
32759;BME280;19125;52.360;9.974;2023-03-18T06:07:30;14810.38;;;-145.17;66.89
32759;BME280;19125;52.360;9.974;2023-03-18T06:09:56;15309.34;;;-145.17;66.70
32759;BME280;19125;52.360;9.974;2023-03-18T06:12:21;16057.88;;;-145.17;66.75
32759;BME280;19125;52.360;9.974;2023-03-18T06:14:51;16307.41;;;-145.17;66.63
32759;BME280;19125;52.360;9.974;2023-03-18T06:17:18;16556.97;;;-145.17;66.68
32759;BME280;19125;52.360;9.974;2023-03-18T06:19:44;16806.56;;;-145.17;66.22
32759;BME280;19125;52.360;9.974;2023-03-18T06:22:10;17555.38;;;-145.17;66.44
32759;BME280;19125;52.360;9.974;2023-03-18T06:24:35;18554.03;;;-145.17;66.21
32759;BME280;19125;52.360;9.974;2023-03-18T06:27:01;19303.19;;;-145.17;66.22
32759;BME280;19125;52.360;9.974;2023-03-18T06:29:26;20302.31;;;-145.17;66.27
32759;BME280;19125;52.360;9.974;2023-03-18T06:31:51;21551.56;;;-145.17;65.96
32759;BME280;19125;52.360;9.974;2023-03-18T06:34:17;22551.25;;;-145.17;65.49
32759;BME280;19125;52.360;9.974;2023-03-18T06:36:44;24301.31;;;-145.17;65.49
32759;BME280;19125;52.360;9.974;2023-03-18T06:39:10;26302.34;;;-145.17;65.12
32759;BME280;19125;52.360;9.974;2023-03-18T06:41:36;28054.09;;;-145.17;65.30
32759;BME280;19125;52.360;9.974;2023-03-18T06:44:02;29806.63;;;-145.17;64.59
32759;BME280;19125;52.360;9.974;2023-03-18T06:46:28;31810.47;;;-145.17;64.47
32759;BME280;19125;52.360;9.974;2023-03-18T06:48:54;33564.69;;;-145.17;64.53
32759;BME280;19125;52.360;9.974;2023-03-18T06:51:20;35319.69;;;-145.17;64.16
32759;BME280;19125;52.360;9.974;2023-03-18T06:53:45;36573.75;;;-145.17;64.37
32759;BME280;19125;52.360;9.974;2023-03-18T06:56:11;37828.22;;;-145.17;64.09
32759;BME280;19125;52.360;9.974;2023-03-18T06:58:40;38330.09;;;-145.17;63.75
32759;BME280;19125;52.360;9.974;2023-03-18T07:01:05;38581.06;;;-145.17;64.17
32759;BME280;19125;52.360;9.974;2023-03-18T07:03:32;39334.09;;;-145.17;63.89
32759;BME280;19125;52.360;9.974;2023-03-18T07:05:58;40840.53;;;-145.17;63.87
32759;BME280;19125;52.360;9.974;2023-03-18T07:08:23;41593.97;;;-145.17;63.59
32759;BME280;19125;52.360;9.974;2023-03-18T07:10:52;42347.56;;;-145.17;63.85
32759;BME280;19125;52.360;9.974;2023-03-18T07:13:18;43603.84;;;-145.17;63.21
32759;BME280;19125;52.360;9.974;2023-03-18T07:15:44;45866.22;;;-145.17;63.43
32759;BME280;19125;52.360;9.974;2023-03-18T07:18:10;48381.44;;;-145.17;63.04
32759;BME280;19125;52.360;9.974;2023-03-18T07:20:36;51401.84;;;-145.17;62.80
32759;BME280;19125;52.360;9.974;2023-03-18T07:23:02;53668.66;;;-145.17;62.27
32759;BME280;19125;52.360;9.974;2023-03-18T07:25:28;56440.97;;;-145.17;62.26
32759;BME280;19125;52.360;9.974;2023-03-18T07:27:56;57701.75;;;-145.17;62.12
32759;BME280;19125;52.360;9.974;2023-03-18T07:30:27;61991.44;;;-145.17;61.64
32759;BME280;19125;52.360;9.974;2023-03-18T07:32:53;67913.09;;;-145.17;60.85
32759;BME280;19125;52.360;9.974;2023-03-18T07:35:19;73843.53;;;-145.17;60.51
32759;BME280;19125;52.360;9.974;2023-03-18T07:37:46;78827.97;;;-145.17;59.91
32759;BME280;19125;52.360;9.974;2023-03-18T07:40:12;82464.28;;;-145.17;59.01
32759;BME280;19125;52.360;9.974;2023-03-18T07:42:40;84407.66;;;-145.17;58.67
32759;BME280;19125;52.360;9.974;2023-03-18T07:45:06;85605.88;;;-145.17;58.38
32759;BME280;19125;52.360;9.974;2023-03-18T07:47:32;85970.97;;;-145.17;58.04
32759;BME280;19125;52.360;9.974;2023-03-18T07:49:57;86171.38;;;-145.17;57.63
32759;BME280;19125;52.360;9.974;2023-03-18T07:52:23;86383.72;;;-145.17;57.29
32759;BME280;19125;52.360;9.974;2023-03-18T07:54:49;86578.19;;;-145.17;57.39
32759;BME280;19125;52.360;9.974;2023-03-18T07:57:14;86667.50;;;-145.17;56.88
32759;BME280;19125;52.360;9.974;2023-03-18T07:59:40;86750.88;;;-145.17;56.91
32759;BME280;19125;52.360;9.974;2023-03-18T08:02:06;86786.59;;;-145.17;56.72
32759;BME280;19125;52.360;9.974;2023-03-18T08:04:32;86784.59;;;-145.17;56.51
32759;BME280;19125;52.360;9.974;2023-03-18T08:06:59;86806.44;;;-145.17;56.65
32759;BME280;19125;52.360;9.974;2023-03-18T08:09:25;86766.75;;;-145.17;56.80
32759;BME280;19125;52.360;9.974;2023-03-18T08:11:52;86760.78;;;-145.17;57.07
32759;BME280;19125;52.360;9.974;2023-03-18T08:14:18;86695.28;;;-145.17;56.95
32759;BME280;19125;52.360;9.974;2023-03-18T08:16:43;86731.00;;;-145.17;56.96
32759;BME280;19125;52.360;9.974;2023-03-18T08:19:08;86796.50;;;-145.17;56.74
32759;BME280;19125;52.360;9.974;2023-03-18T08:21:34;86852.09;;;-145.17;56.60
32759;BME280;19125;52.360;9.974;2023-03-18T08:23:59;86875.91;;;-145.17;56.58
32759;BME280;19125;52.360;9.974;2023-03-18T08:26:25;86919.56;;;-145.17;56.19
32759;BME280;19125;52.360;9.974;2023-03-18T08:28:50;86943.38;;;-145.17;56.37
32759;BME280;19125;52.360;9.974;2023-03-18T08:31:15;86911.63;;;-145.17;56.36
32759;BME280;19125;52.360;9.974;2023-03-18T08:33:41;86909.63;;;-145.17;56.21
32759;BME280;19125;52.360;9.974;2023-03-18T08:36:08;86909.63;;;-145.17;56.17
32759;BME280;19125;52.360;9.974;2023-03-18T08:38:33;86917.56;;;-145.17;56.03
32759;BME280;19125;52.360;9.974;2023-03-18T08:40:59;86957.28;;;-145.17;55.86
32759;BME280;19125;52.360;9.974;2023-03-18T08:43:25;86991.00;;;-145.17;55.54
32759;BME280;19125;52.360;9.974;2023-03-18T08:45:55;86973.16;;;-145.17;56.13
32759;BME280;19125;52.360;9.974;2023-03-18T08:48:21;86949.34;;;-145.17;56.10
32759;BME280;19125;52.360;9.974;2023-03-18T08:50:47;86919.56;;;-145.17;56.07
32759;BME280;19125;52.360;9.974;2023-03-18T08:53:13;86814.38;;;-145.17;56.33
32759;BME280;19125;52.360;9.974;2023-03-18T08:55:39;86848.13;;;-145.17;56.35
32759;BME280;19125;52.360;9.974;2023-03-18T08:58:06;86800.47;;;-145.17;56.07
32759;BME280;19125;52.360;9.974;2023-03-18T09:00:33;86856.06;;;-145.17;55.80
32759;BME280;19125;52.360;9.974;2023-03-18T09:02:58;86881.84;;;-145.17;55.03
32759;BME280;19125;52.360;9.974;2023-03-18T09:05:24;86917.56;;;-145.17;55.25
32759;BME280;19125;52.360;9.974;2023-03-18T09:07:50;86887.81;;;-145.17;54.77
32759;BME280;19125;52.360;9.974;2023-03-18T09:10:16;86901.69;;;-145.17;54.80
32759;BME280;19125;52.360;9.974;2023-03-18T09:12:43;86877.88;;;-145.17;54.12
32759;BME280;19125;52.360;9.974;2023-03-18T09:15:11;86877.88;;;-145.17;52.95
32759;BME280;19125;52.360;9.974;2023-03-18T09:17:38;86858.03;;;-145.17;53.12
32759;BME280;19125;52.360;9.974;2023-03-18T09:20:07;86810.41;;;-145.17;52.73
32759;BME280;19125;52.360;9.974;2023-03-18T09:22:34;86780.63;;;-145.17;52.19
32759;BME280;19125;52.360;9.974;2023-03-18T09:24:59;86742.91;;;-145.17;51.87
32759;BME280;19125;52.360;9.974;2023-03-18T09:27:25;86729.03;;;-145.17;51.72
32759;BME280;19125;52.360;9.974;2023-03-18T09:29:51;86711.16;;;-145.17;51.64
32759;BME280;19125;52.360;9.974;2023-03-18T09:32:16;86647.66;;;-145.17;51.05
32759;BME280;19125;52.360;9.974;2023-03-18T09:34:45;86582.16;;;-145.17;50.00
32759;BME280;19125;52.360;9.974;2023-03-18T09:37:10;86625.81;;;-145.17;50.28
32759;BME280;19125;52.360;9.974;2023-03-18T09:39:38;86588.13;;;-145.17;49.38
32759;BME280;19125;52.360;9.974;2023-03-18T09:44:48;86524.63;;;-145.17;49.25
32759;BME280;19125;52.360;9.974;2023-03-18T09:50:31;86459.13;;;-145.17;48.24
32759;BME280;19125;52.360;9.974;2023-03-18T09:53:05;86478.97;;;-145.17;48.54
32759;BME280;19125;52.360;9.974;2023-03-18T09:55:44;86484.94;;;-145.17;48.55
32759;BME280;19125;52.360;9.974;2023-03-18T09:58:28;86473.03;;;-145.17;48.00
32759;BME280;19125;52.360;9.974;2023-03-18T10:01:00;86492.88;;;-145.17;48.00
32759;BME280;19125;52.360;9.974;2023-03-18T10:03:47;86526.59;;;-145.17;48.43
32759;BME280;19125;52.360;9.974;2023-03-18T10:11:22;86480.97;;;-145.17;47.22
32759;BME280;19125;52.360;9.974;2023-03-18T10:17:15;86556.38;;;-145.17;47.66
32759;BME280;19125;52.360;9.974;2023-03-18T10:19:47;86500.81;;;-145.17;47.30
32759;BME280;19125;52.360;9.974;2023-03-18T10:22:47;86512.72;;;-145.17;47.62
32759;BME280;19125;52.360;9.974;2023-03-18T10:25:21;86492.88;;;-145.17;47.55
32759;BME280;19125;52.360;9.974;2023-03-18T10:35:50;86453.16;;;-145.17;47.57
32759;BME280;19125;52.360;9.974;2023-03-18T10:38:50;86417.44;;;-145.17;47.39
32759;BME280;19125;52.360;9.974;2023-03-18T10:43:40;86332.13;;;-145.17;46.71
32759;BME280;19125;52.360;9.974;2023-03-18T10:46:08;86286.47;;;-145.17;45.71
32759;BME280;19125;52.360;9.974;2023-03-18T10:48:40;86191.22;;;-145.17;45.66
32759;BME280;19125;52.360;9.974;2023-03-18T10:56:30;86082.09;;;-145.17;43.63
32759;BME280;19125;52.360;9.974;2023-03-18T10:58:55;86070.19;;;-145.17;43.29
32759;BME280;19125;52.360;9.974;2023-03-18T11:01:23;86068.19;;;-145.17;43.18
32759;BME280;19125;52.360;9.974;2023-03-18T11:03:58;86052.31;;;-145.17;42.40
32759;BME280;19125;52.360;9.974;2023-03-18T11:06:39;86042.41;;;-145.17;42.09
32759;BME280;19125;52.360;9.974;2023-03-18T11:09:11;86022.56;;;-145.17;42.02
32759;BME280;19125;52.360;9.974;2023-03-18T11:11:41;85961.03;;;-145.17;41.79
32759;BME280;19125;52.360;9.974;2023-03-18T11:14:11;86008.66;;;-145.17;41.74
32759;BME280;19125;52.360;9.974;2023-03-18T11:17:04;85959.06;;;-145.17;41.70
32759;BME280;19125;52.360;9.974;2023-03-18T11:22:21;85838.03;;;-145.17;41.20
32759;BME280;19125;52.360;9.974;2023-03-18T11:25:20;85907.47;;;-145.17;40.58
32759;BME280;19125;52.360;9.974;2023-03-18T11:27:50;85859.84;;;-145.17;40.63
32759;BME280;19125;52.360;9.974;2023-03-18T11:30:20;85861.84;;;-145.17;40.98
32759;BME280;19125;52.360;9.974;2023-03-18T11:35:31;85994.78;;;-145.17;41.23
32759;BME280;19125;52.360;9.974;2023-03-18T11:38:05;86014.63;;;-145.17;41.51
32759;BME280;19125;52.360;9.974;2023-03-18T11:40:31;85988.81;;;-145.17;41.86
32759;BME280;19125;52.360;9.974;2023-03-18T11:42:59;86000.72;;;-145.17;41.73
32759;BME280;19125;52.360;9.974;2023-03-18T11:48:28;85909.44;;;-145.17;41.25
32759;BME280;19125;52.360;9.974;2023-03-18T11:53:33;85816.19;;;-145.17;39.96
32759;BME280;19125;52.360;9.974;2023-03-18T11:56:18;85851.91;;;-145.17;40.03
32759;BME280;19125;52.360;9.974;2023-03-18T11:58:59;85836.03;;;-145.17;39.79
32759;BME280;19125;52.360;9.974;2023-03-18T12:01:41;85764.59;;;-145.17;38.91
32759;BME280;19125;52.360;9.974;2023-03-18T12:07:21;85738.81;;;-145.17;38.13
32759;BME280;19125;52.360;9.974;2023-03-18T12:09:57;85707.06;;;-145.17;38.13
32759;BME280;19125;52.360;9.974;2023-03-18T12:16:02;85780.47;;;-145.17;38.03
32759;BME280;19125;52.360;9.974;2023-03-18T12:18:58;85752.69;;;-145.17;38.25
32759;BME280;19125;52.360;9.974;2023-03-18T12:25:00;85750.72;;;-145.17;37.98
32759;BME280;19125;52.360;9.974;2023-03-18T12:27:12;85756.66;;;-145.17;38.02
32759;BME280;19125;52.360;9.974;2023-03-18T12:30:19;85742.78;;;-145.17;38.21
32759;BME280;19125;52.360;9.974;2023-03-18T12:33:01;85766.59;;;-145.17;38.23
32759;BME280;19125;52.360;9.974;2023-03-18T12:35:42;85786.44;;;-145.17;38.59
32759;BME280;19125;52.360;9.974;2023-03-18T12:38:41;85851.91;;;-145.17;39.09
32759;BME280;19125;52.360;9.974;2023-03-18T12:41:17;85897.53;;;-145.17;39.30
32759;BME280;19125;52.360;9.974;2023-03-18T12:48:54;85957.06;;;-145.17;40.15
32759;BME280;19125;52.360;9.974;2023-03-18T12:51:28;85945.16;;;-145.17;40.01
32759;BME280;19125;52.360;9.974;2023-03-18T12:53:58;85941.19;;;-145.17;40.22
32759;BME280;19125;52.360;9.974;2023-03-18T12:56:28;85953.09;;;-145.17;40.13
32759;BME280;19125;52.360;9.974;2023-03-18T12:59:06;85972.94;;;-145.17;40.32
32759;BME280;19125;52.360;9.974;2023-03-18T13:01:39;85970.97;;;-145.17;40.58
32759;BME280;19125;52.360;9.974;2023-03-18T13:04:18;86016.59;;;-145.17;40.97
32759;BME280;19125;52.360;9.974;2023-03-18T13:06:57;86008.66;;;-145.17;41.09
32759;BME280;19125;52.360;9.974;2023-03-18T13:09:40;85986.84;;;-145.17;40.64
32759;BME280;19125;52.360;9.974;2023-03-18T13:12:11;85915.41;;;-145.17;39.85
32759;BME280;19125;52.360;9.974;2023-03-18T13:17:42;85893.56;;;-145.17;39.12
32759;BME280;19125;52.360;9.974;2023-03-18T13:20:38;85899.53;;;-145.17;39.19
32759;BME280;19125;52.360;9.974;2023-03-18T13:37:36;85730.88;;;-145.17;37.51
32759;BME280;19125;52.360;9.974;2023-03-18T13:43:12;85713.03;;;-145.17;36.84
32759;BME280;19125;52.360;9.974;2023-03-18T13:45:41;85711.03;;;-145.17;37.01
32759;BME280;19125;52.360;9.974;2023-03-18T13:48:18;85707.06;;;-145.17;37.23
32759;BME280;19125;52.360;9.974;2023-03-18T13:50:46;85720.97;;;-145.17;37.27
32759;BME280;19125;52.360;9.974;2023-03-18T13:53:33;85794.38;;;-145.17;37.87
32759;BME280;19125;52.360;9.974;2023-03-18T13:56:04;85818.19;;;-145.17;37.87
32759;BME280;19125;52.360;9.974;2023-03-18T13:58:35;85784.44;;;-145.17;38.01
32759;BME280;19125;52.360;9.974;2023-03-18T14:01:24;85816.19;;;-145.17;38.16
32759;BME280;19125;52.360;9.974;2023-03-18T14:03:55;85798.34;;;-145.17;37.96
32759;BME280;19125;52.360;9.974;2023-03-18T14:06:38;85774.53;;;-145.17;37.67
32759;BME280;19125;52.360;9.974;2023-03-18T14:09:32;85750.72;;;-145.17;37.69
32759;BME280;19125;52.360;9.974;2023-03-18T14:12:11;85784.44;;;-145.17;37.81